Details From LFKC - St Catherine
To LIEA - Alghero
Flight Number -
Tags Routegen Generated
Created
Modified
Stats Distance 115 nm / 213 km
Max Altitude 400 ft / 122 m
Waypoints 7
Social Downloads 1
Likes 0
Share VATSIM

Download

Looking for another format? Having issues loading an existing format? Contact us
Advertisement - Login to hide

Notes

Departing runway 17 LFKC. Arriving runway 2 LIEA.

Route

LFKC +42.45_+008.79 +42.39_+008.77 +41.74_+008.59 +40.77_+008.34 +40.71_+008.34 LIEA

ID Type Via Altitude Latitude Longitude Leg Dist Tot Dist Heading (true) Name
O LFKC APT - 0 ft / 0 m 42.52035˚ 8.79302˚ - 0 nm - -
+42.45_+008.79 LATLON - 400 ft / 122 m 42.44799˚ 8.79370˚ 4 nm 4 nm 180° / 180° -
+42.39_+008.77 LATLON - 400 ft / 122 m 42.39345˚ 8.76740˚ 3 nm 7 nm 200° / 200° -
+41.74_+008.59 LATLON - 400 ft / 122 m 41.74138˚ 8.59492˚ 39 nm 47 nm 191° / 191° -
+40.77_+008.34 LATLON - 400 ft / 122 m 40.76796˚ 8.34380˚ 59 nm 107 nm 191° / 191° -
+40.71_+008.34 LATLON - 400 ft / 122 m 40.71025˚ 8.33777˚ 3 nm 110 nm 185° / 185° -
O LIEA APT - 0 ft / 0 m 40.64442˚ 8.29816˚ 4 nm 115 nm 205° / 205° -

Altitude Profile

Advertisement - Login to hide

LFKC

Details ICAO LFKC (CLY)
Name St Catherine
Region France
Timezone Europe/Paris (UTC+1.0)
Stats Elevation 208 ft / 63 m (AMSL)
Location 42.530762° 8.792925°
Runways 1
Magnetic Variation 2.343° E

METAR

LFKC 172000Z AUTO 20008KT CAVOK 05/M02 Q1022

Decode

TAF

TAF AMD TAF AMD LFKC 171900Z 1719/1815 CNL

Decode

Departure Runways

ID Width Length Bearing (true) Bearing (mag) Surface Threshold Offset Overrun Length
18 131 ft / 40 m 7,596 ft / 2,315 m 179.60° 177.26° Concrete 0 ft / 0 m 0 ft / 0 m
36 131 ft / 40 m 7,596 ft / 2,315 m 359.60° 357.26° Concrete 656 ft / 200 m 0 ft / 0 m

LIEA

Details ICAO LIEA (AHO)
Name ALGHERO
Region Italy
Timezone Europe/Rome (UTC+1.0)
Stats Elevation 87 ft / 27 m (AMSL)
Location 40.632132° 8.290774°
Runways 1
Magnetic Variation 2.195° E

METAR

LIEA 171950Z VRB01KT 9999 FEW025 05/03 Q1023

Decode

TAF

TAF LIEA 171700Z 1718/1818 VRB05KT 9999 SCT025 TEMPO 1718/1724 SHRA BECMG 1809/1811 23012KT

Decode

Destination Runways

ID Width Length Bearing (true) Bearing (mag) Surface Threshold Offset Overrun Length
02 148 ft / 45 m 9,854 ft / 3,004 m 24.51° 22.32° Asphalt 0 ft / 0 m 0 ft / 0 m
20 148 ft / 45 m 9,854 ft / 3,004 m 204.52° 202.33° Asphalt 0 ft / 0 m 0 ft / 0 m

Approach Navaids

Runway Type Ident Frequency Range Bearing (true) Bearing (mag) Slope Elevation
20 Localiser IALF 110.15 MHz 18 nm / 33 km 204.47° 202.28° - 72 ft / 22 m (AMSL)
20 Glidescope IALF 110.15 MHz 10 nm / 19 km 204.51° 202.32° 3.00° 133 ft / 41 m (AMSL)
20 DME IALF 110.15 MHz 25 nm / 46 km - - - 133 ft / 41 m (AMSL)

Popular Alternatives